createdAt,value
2017-11-18T00:00:29.030Z,0
2017-11-18T00:01:38.857Z,0
2017-11-18T00:02:48.680Z,0
2017-11-18T00:03:58.784Z,0
2017-11-18T00:05:08.923Z,0
2017-11-18T00:06:19.066Z,0
2017-11-18T00:07:29.158Z,0
2017-11-18T00:08:38.454Z,0
2017-11-18T00:09:48.532Z,0
2017-11-18T00:10:58.614Z,0
2017-11-18T00:12:08.453Z,0
2017-11-18T00:13:18.564Z,0
2017-11-18T00:14:28.656Z,0
2017-11-18T00:15:38.515Z,0
2017-11-18T00:16:48.056Z,0
2017-11-18T00:17:57.893Z,0
2017-11-18T00:19:07.983Z,0
2017-11-18T00:20:17.831Z,0
2017-11-18T00:21:27.654Z,0
2017-11-18T00:22:37.755Z,0
2017-11-18T00:23:47.578Z,0
2017-11-18T00:24:57.399Z,0
2017-11-18T00:26:07.526Z,0
2017-11-18T00:27:17.615Z,0
2017-11-18T00:28:27.425Z,0
2017-11-18T00:29:37.517Z,0
2017-11-18T00:30:47.604Z,0
2017-11-18T00:31:57.688Z,0
2017-11-18T00:33:07.507Z,0
2017-11-18T00:34:17.330Z,0
2017-11-18T00:35:27.215Z,0
2017-11-18T00:36:36.776Z,0
2017-11-18T00:37:46.880Z,0
2017-11-18T00:38:56.967Z,0
2017-11-18T00:40:07.056Z,0
2017-11-18T00:41:16.980Z,0
2017-11-18T00:42:27.092Z,0
2017-11-18T00:43:36.911Z,0
2017-11-18T00:44:46.998Z,0
2017-11-18T00:45:57.109Z,0
2017-11-18T00:47:06.968Z,0
2017-11-18T00:48:16.794Z,0
2017-11-18T00:49:26.880Z,0
2017-11-18T00:50:36.708Z,0
2017-11-18T00:51:46.534Z,0
2017-11-18T00:52:56.725Z,0
2017-11-18T00:54:06.807Z,0
2017-11-18T00:55:16.376Z,0
2017-11-18T00:56:26.523Z,0
2017-11-18T00:57:36.340Z,0
2017-11-18T00:58:46.450Z,0
2017-11-18T00:59:55.730Z,0
2017-11-18T01:01:05.819Z,0
2017-11-18T01:02:15.642Z,0
2017-11-18T01:03:25.228Z,0
2017-11-18T01:04:35.348Z,0
2017-11-18T01:05:45.449Z,0
2017-11-18T01:06:55.548Z,0
2017-11-18T01:08:05.391Z,0
2017-11-18T01:09:14.937Z,0
2017-11-18T01:10:25.012Z,0
2017-11-18T01:11:35.130Z,0
2017-11-18T01:12:44.684Z,0
2017-11-18T01:13:55.399Z,0
2017-11-18T01:15:05.750Z,0
2017-11-18T01:16:16.125Z,0
2017-11-18T01:17:26.244Z,0
2017-11-18T01:18:36.360Z,0
2017-11-18T01:19:45.902Z,0
2017-11-18T01:20:56.046Z,0
2017-11-18T01:22:06.156Z,0
2017-11-18T01:23:16.287Z,0
2017-11-18T01:24:26.372Z,0
2017-11-18T01:25:36.454Z,0
2017-11-18T01:26:46.589Z,0
2017-11-18T01:27:56.671Z,0
2017-11-18T01:29:06.723Z,0
2017-11-18T01:30:17.302Z,0
2017-11-18T01:31:26.929Z,0
2017-11-18T01:32:37.101Z,0
2017-11-18T01:33:46.906Z,0
2017-11-18T01:34:56.783Z,0
2017-11-18T01:36:06.320Z,0
2017-11-18T01:37:15.879Z,0
2017-11-18T01:38:25.444Z,0
2017-11-18T01:39:35.525Z,0
2017-11-18T01:40:45.678Z,0
2017-11-18T01:41:55.766Z,0
2017-11-18T01:43:06.221Z,0
2017-11-18T01:44:16.140Z,0
2017-11-18T01:45:26.111Z,0
2017-11-18T01:46:36.222Z,0
2017-11-18T01:47:46.313Z,0
2017-11-18T01:48:55.849Z,0
2017-11-18T01:50:06.004Z,0
2017-11-18T01:51:16.100Z,0
2017-11-18T01:52:26.200Z,0
2017-11-18T01:53:36.084Z,0
2017-11-18T01:54:46.164Z,0
2017-11-18T01:55:56.317Z,0
2017-11-18T01:57:06.206Z,0
2017-11-18T01:58:16.065Z,0
2017-11-18T01:59:26.164Z,0
2017-11-18T02:00:36.268Z,0
2017-11-18T02:01:46.100Z,0
2017-11-18T02:02:55.921Z,0
2017-11-18T02:04:06.035Z,0
2017-11-18T02:05:16.134Z,0
2017-11-18T02:06:26.256Z,0
2017-11-18T02:07:36.357Z,0
2017-11-18T02:08:46.501Z,0
2017-11-18T02:09:56.385Z,0
2017-11-18T02:11:06.460Z,0
2017-11-18T02:12:16.992Z,0
2017-11-18T02:13:27.032Z,0
2017-11-18T02:14:37.130Z,0
2017-11-18T02:15:47.418Z,0
2017-11-18T02:16:57.246Z,0
2017-11-18T02:18:07.284Z,0
2017-11-18T02:19:17.353Z,0
2017-11-18T02:20:27.454Z,0
2017-11-18T02:21:37.280Z,0
2017-11-18T02:22:47.280Z,0
2017-11-18T02:23:57.436Z,0
2017-11-18T02:25:07.295Z,0
2017-11-18T02:26:17.378Z,0
2017-11-18T02:27:27.479Z,0
2017-11-18T02:28:37.300Z,0
2017-11-18T02:29:47.106Z,0
2017-11-18T02:30:57.188Z,0
2017-11-18T02:32:07.066Z,0
2017-11-18T02:33:17.152Z,0
2017-11-18T02:34:27.258Z,0
2017-11-18T02:35:37.369Z,0
2017-11-18T02:36:47.457Z,0
2017-11-18T02:37:57.274Z,0
2017-11-18T02:39:07.375Z,0
2017-11-18T02:40:17.472Z,0
2017-11-18T02:41:27.579Z,0
2017-11-18T02:42:37.392Z,0
2017-11-18T02:43:48.146Z,0
2017-11-18T02:44:57.971Z,0
2017-11-18T02:46:07.795Z,0
2017-11-18T02:47:17.901Z,0
2017-11-18T02:48:28.021Z,0
2017-11-18T02:49:38.136Z,0
2017-11-18T02:50:48.199Z,0
2017-11-18T02:51:58.036Z,0
2017-11-18T02:53:07.879Z,0
2017-11-18T02:54:17.716Z,0
2017-11-18T02:55:27.609Z,0
2017-11-18T02:56:37.714Z,0
2017-11-18T02:57:47.808Z,0
2017-11-18T02:58:57.623Z,0
2017-11-18T03:00:07.732Z,0
2017-11-18T03:01:17.594Z,0
2017-11-18T03:02:27.680Z,0
2017-11-18T03:33:51.899Z,0
2017-11-18T03:35:02.013Z,0
2017-11-18T03:36:11.555Z,0
2017-11-18T03:37:21.101Z,0
2017-11-18T03:38:30.904Z,0
2017-11-18T03:39:40.978Z,0
2017-11-18T03:40:50.788Z,0
2017-11-18T03:42:00.345Z,0
2017-11-18T03:43:10.167Z,0
2017-11-18T03:44:19.974Z,0
2017-11-18T03:45:29.852Z,0
2017-11-18T03:46:39.696Z,0
2017-11-18T03:47:49.493Z,0
2017-11-18T03:48:59.559Z,0
2017-11-18T03:50:09.380Z,0
2017-11-18T03:51:19.254Z,0
2017-11-18T03:52:29.337Z,0
2017-11-18T03:53:38.918Z,0
2017-11-18T03:54:48.730Z,0
2017-11-18T03:55:59.501Z,0
2017-11-18T03:57:09.637Z,0
2017-11-18T03:58:19.726Z,0
2017-11-18T03:59:29.830Z,0
2017-11-18T04:00:39.385Z,0
2017-11-18T04:01:49.481Z,0
2017-11-18T04:02:59.559Z,0
2017-11-18T04:04:09.373Z,0
2017-11-18T04:05:19.195Z,0
2017-11-18T04:06:28.757Z,0
2017-11-18T04:07:38.839Z,0
2017-11-18T04:08:48.932Z,0
2017-11-18T04:09:59.032Z,0
2017-11-18T04:11:08.859Z,0
2017-11-18T04:12:18.674Z,0
2017-11-18T04:13:28.492Z,0
2017-11-18T04:14:38.571Z,0
2017-11-18T04:15:48.666Z,0
2017-11-18T04:16:58.753Z,0
2017-11-18T04:18:08.863Z,0
2017-11-18T04:19:18.932Z,0
2017-11-18T04:20:29.081Z,0
2017-11-18T04:21:39.160Z,0
2017-11-18T04:22:49.890Z,0
2017-11-18T04:23:59.720Z,0
2017-11-18T04:25:09.547Z,0
2017-11-18T04:26:19.623Z,0
2017-11-18T04:27:29.704Z,0
2017-11-18T04:28:39.515Z,0
2017-11-18T04:29:49.612Z,0
2017-11-18T04:30:59.185Z,0
2017-11-18T04:32:08.987Z,0
2017-11-18T04:33:18.805Z,0
2017-11-18T04:34:28.616Z,0
2017-11-18T04:35:38.454Z,0
2017-11-18T04:36:48.021Z,0
2017-11-18T04:37:57.574Z,0
2017-11-18T04:39:08.155Z,0
2017-11-18T04:40:18.255Z,0
2017-11-18T04:41:28.083Z,0
2017-11-18T04:42:38.196Z,0
2017-11-18T04:43:48.284Z,0
2017-11-18T04:44:58.361Z,0
2017-11-18T04:46:07.911Z,0
2017-11-18T04:47:17.477Z,0
2017-11-18T04:48:27.028Z,0
2017-11-18T04:49:37.128Z,0
2017-11-18T04:50:47.219Z,0
2017-11-18T04:51:57.332Z,0
2017-11-18T04:53:07.157Z,0
2017-11-18T04:54:16.973Z,0
2017-11-18T04:55:27.092Z,0
2017-11-18T04:56:37.167Z,0
2017-11-18T04:57:46.985Z,0
2017-11-18T04:58:56.572Z,0
2017-11-18T05:00:06.393Z,0
2017-11-18T05:01:16.242Z,0
2017-11-18T05:02:26.066Z,0
2017-11-18T05:03:36.173Z,0
2017-11-18T05:04:46.259Z,0
2017-11-18T05:05:56.352Z,0
2017-11-18T05:07:06.439Z,0
2017-11-18T05:08:16.520Z,0
2017-11-18T05:09:26.080Z,0
2017-11-18T05:10:35.899Z,0
2017-11-18T05:11:45.974Z,0
2017-11-18T05:12:56.061Z,0
2017-11-18T05:14:05.923Z,0
2017-11-18T05:15:15.742Z,0
2017-11-18T05:16:25.809Z,0
2017-11-18T05:17:35.900Z,0
2017-11-18T05:18:45.986Z,0
2017-11-18T05:19:55.805Z,0
2017-11-18T05:21:05.634Z,0
2017-11-18T05:22:15.732Z,0
2017-11-18T05:23:25.284Z,0
2017-11-18T05:24:35.127Z,0
2017-11-18T05:25:44.951Z,0
2017-11-18T05:26:55.040Z,0
2017-11-18T05:28:04.845Z,0
2017-11-18T05:29:14.693Z,0
2017-11-18T05:30:24.242Z,0
2017-11-18T05:31:34.097Z,0
2017-11-18T05:32:43.937Z,0
2017-11-18T05:33:54.017Z,0
2017-11-18T05:35:04.103Z,0
2017-11-18T05:36:14.187Z,0
2017-11-18T05:37:24.332Z,0
2017-11-18T05:38:34.431Z,0
2017-11-18T05:39:44.245Z,4
2017-11-18T05:40:54.076Z,4
2017-11-18T05:42:03.886Z,4
2017-11-18T05:43:13.685Z,0
2017-11-18T05:44:23.823Z,4
2017-11-18T05:45:33.647Z,4
2017-11-18T05:46:43.470Z,8
2017-11-18T05:47:53.572Z,4
2017-11-18T05:49:03.683Z,8
2017-11-18T05:50:13.508Z,8
2017-11-18T05:51:23.055Z,8
2017-11-18T05:52:32.332Z,12
2017-11-18T05:53:42.166Z,12
2017-11-18T05:54:51.992Z,16
2017-11-18T05:56:02.072Z,16
2017-11-18T05:57:12.150Z,16
2017-11-18T05:58:22.245Z,20
2017-11-18T05:59:32.332Z,24
2017-11-18T06:00:42.227Z,28
2017-11-18T06:01:52.336Z,32
2017-11-18T06:03:02.173Z,36
2017-11-18T06:04:12.263Z,44
2017-11-18T06:05:22.341Z,52
2017-11-18T06:06:32.148Z,60
2017-11-18T06:07:41.962Z,68
2017-11-18T06:08:52.050Z,76
2017-11-18T06:10:01.859Z,88
2017-11-18T06:11:11.936Z,100
2017-11-18T06:12:22.052Z,112
2017-11-18T06:13:31.622Z,120
2017-11-18T06:14:41.724Z,132
2017-11-18T06:15:51.538Z,148
2017-11-18T06:17:01.101Z,156
2017-11-18T06:18:10.971Z,168
2017-11-18T06:19:20.770Z,184
2017-11-18T06:20:30.578Z,200
2017-11-18T06:21:40.651Z,212
2017-11-18T06:22:50.742Z,232
2017-11-18T06:24:00.850Z,248
2017-11-18T06:25:10.391Z,268
2017-11-18T06:26:20.477Z,284
2017-11-18T06:27:30.569Z,308
2017-11-18T06:28:40.377Z,348
2017-11-18T06:29:50.247Z,396
2017-11-18T06:31:00.324Z,416
2017-11-18T06:32:09.877Z,420
2017-11-18T06:33:19.425Z,424
2017-11-18T06:34:29.229Z,448
2017-11-18T06:35:39.353Z,472
2017-11-18T06:36:50.235Z,488
2017-11-18T06:37:59.788Z,504
2017-11-18T06:39:09.877Z,528
2017-11-18T06:40:19.437Z,560
2017-11-18T06:41:29.300Z,572
2017-11-18T06:42:39.121Z,592
2017-11-18T06:43:49.206Z,628
2017-11-18T06:44:59.025Z,676
2017-11-18T06:46:08.560Z,720
2017-11-18T06:47:18.753Z,732
2017-11-18T06:48:28.583Z,756
2017-11-18T06:49:38.438Z,804
2017-11-18T06:50:48.531Z,864
2017-11-18T06:51:58.598Z,896
2017-11-18T06:53:08.697Z,944
2017-11-18T06:54:18.508Z,1020
2017-11-18T06:55:28.326Z,1120
2017-11-18T06:56:38.164Z,1168
2017-11-18T06:57:48.001Z,1204
2017-11-18T06:58:58.122Z,1228
2017-11-18T07:00:07.955Z,1260
2017-11-18T07:01:17.780Z,1320
2017-11-18T07:02:27.857Z,1328
2017-11-18T07:03:37.929Z,1372
2017-11-18T07:05:02.380Z,1392
2017-11-18T07:06:12.193Z,1452
2017-11-18T07:07:22.284Z,1456
2017-11-18T07:08:32.087Z,1420
2017-11-18T07:09:42.200Z,1420
2017-11-18T07:10:52.034Z,1416
2017-11-18T07:12:01.841Z,1408
2017-11-18T07:13:11.934Z,1400
2017-11-18T07:14:21.755Z,1396
2017-11-18T07:15:31.580Z,1408
2017-11-18T07:16:41.395Z,1416
2017-11-18T07:17:51.485Z,1436
2017-11-18T07:19:01.571Z,1464
2017-11-18T07:20:11.418Z,1468
2017-11-18T07:21:21.251Z,1508
2017-11-18T07:22:31.071Z,1556
2017-11-18T07:23:41.169Z,1584
2017-11-18T07:24:51.245Z,1608
2017-11-18T07:26:01.318Z,1632
2017-11-18T07:27:11.151Z,1660
2017-11-18T07:28:21.315Z,1672
2017-11-18T07:29:31.412Z,1664
2017-11-18T07:30:41.513Z,1656
2017-11-18T07:31:51.062Z,1664
2017-11-18T07:33:01.142Z,1688
2017-11-18T07:34:11.237Z,1720
2017-11-18T07:35:21.306Z,1744
2017-11-18T07:36:31.386Z,1796
2017-11-18T07:37:41.483Z,1876
2017-11-18T07:38:51.566Z,1948
2017-11-18T07:40:01.114Z,2016
2017-11-18T07:41:10.976Z,2048
2017-11-18T07:42:21.061Z,2084
2017-11-18T07:43:31.149Z,2144
2017-11-18T07:44:41.239Z,2124
2017-11-18T07:45:51.827Z,2152
2017-11-18T07:47:01.905Z,2200
2017-11-18T07:48:11.995Z,2196
2017-11-18T07:49:21.547Z,2216
2017-11-18T07:50:31.620Z,2232
2017-11-18T07:51:41.701Z,2264
2017-11-18T07:52:51.776Z,2328
2017-11-18T07:54:01.608Z,2396
2017-11-18T07:55:11.174Z,2568
2017-11-18T07:56:21.268Z,2732
2017-11-18T07:57:31.136Z,2924
2017-11-18T07:58:41.227Z,2932
2017-11-18T07:59:51.042Z,3056
2017-11-18T08:01:00.855Z,3108
2017-11-18T08:02:10.932Z,2888
2017-11-18T08:03:20.789Z,3112
2017-11-18T08:04:30.863Z,2972
2017-11-18T08:05:40.967Z,3088
2017-11-18T08:06:50.792Z,3168
2017-11-18T08:08:00.874Z,3108
2017-11-18T08:09:11.012Z,3136
2017-11-18T08:10:21.131Z,3244
2017-11-18T08:11:31.452Z,3864
2017-11-18T08:12:41.004Z,3568
2017-11-18T08:13:51.075Z,3384
2017-11-18T08:15:00.907Z,3252
2017-11-18T08:16:10.457Z,3788
2017-11-18T08:17:20.533Z,3148
2017-11-18T08:18:30.351Z,3152
2017-11-18T08:19:40.186Z,3272
2017-11-18T08:20:50.007Z,2964
2017-11-18T08:21:59.298Z,3036
2017-11-18T08:23:09.121Z,3072
2017-11-18T08:24:19.197Z,3040
2017-11-18T08:25:29.280Z,2972
2017-11-18T08:26:38.820Z,3020
2017-11-18T08:27:48.907Z,2992
2017-11-18T08:28:59.017Z,3040
2017-11-18T08:30:09.016Z,3376
2017-11-18T08:31:19.109Z,3220
2017-11-18T08:32:28.937Z,3192
2017-11-18T08:33:39.032Z,3320
2017-11-18T08:34:49.101Z,3352
2017-11-18T08:35:58.387Z,3332
2017-11-18T08:37:08.221Z,3396
2017-11-18T08:38:18.316Z,3384
2017-11-18T08:39:28.161Z,3368
2017-11-18T08:40:37.988Z,3420
2017-11-18T08:41:47.794Z,3464
2017-11-18T08:42:57.907Z,4576
2017-11-18T08:44:07.990Z,3412
2017-11-18T08:45:17.809Z,3368
2017-11-18T08:46:27.925Z,3428
2017-11-18T08:47:37.216Z,3540
2017-11-18T08:48:46.797Z,3840
2017-11-18T08:49:56.904Z,3556
2017-11-18T08:51:07.000Z,3456
2017-11-18T08:52:17.072Z,3384
2017-11-18T08:53:27.173Z,3468
2017-11-18T08:54:36.992Z,3404
2017-11-18T08:55:47.090Z,3400
2017-11-18T08:56:56.922Z,3564
2017-11-18T08:58:06.740Z,3492
2017-11-18T08:59:16.939Z,3468
2017-11-18T09:00:26.496Z,3268
2017-11-18T09:01:36.586Z,3328
2017-11-18T09:02:46.673Z,3340
2017-11-18T09:03:56.232Z,3524
2017-11-18T09:05:06.349Z,3488
2017-11-18T09:06:16.156Z,3496
2017-11-18T09:07:26.274Z,3528
2017-11-18T09:08:36.401Z,3524
2017-11-18T09:09:46.329Z,3436
2017-11-18T09:10:56.417Z,3404
2017-11-18T09:12:06.496Z,3476
2017-11-18T09:13:16.119Z,3492
2017-11-18T09:14:26.229Z,3536
2017-11-18T09:15:36.046Z,3468
2017-11-18T09:16:46.157Z,3432
2017-11-18T09:17:56.260Z,3344
2017-11-18T09:19:06.081Z,3288
2017-11-18T09:20:16.173Z,3260
2017-11-18T09:21:25.995Z,3256
2017-11-18T09:22:36.094Z,3256
2017-11-18T09:23:46.179Z,3248
2017-11-18T09:24:56.274Z,3272
2017-11-18T09:26:05.843Z,3256
2017-11-18T09:27:17.039Z,3264
2017-11-18T09:28:27.138Z,3268
2017-11-18T09:29:36.978Z,3272
2017-11-18T09:30:47.161Z,3288
2017-11-18T09:31:56.980Z,3312
2017-11-18T09:33:07.091Z,3336
2017-11-18T09:34:17.200Z,3344
2017-11-18T09:35:27.294Z,3336
2017-11-18T09:36:37.178Z,3320
2017-11-18T09:37:46.986Z,3308
2017-11-18T09:38:56.837Z,3312
2017-11-18T09:40:06.664Z,3312
2017-11-18T09:41:16.761Z,3320
2017-11-18T09:42:26.877Z,3364
2017-11-18T09:43:36.705Z,3428
2017-11-18T09:44:46.795Z,3480
2017-11-18T09:45:56.906Z,3504
2017-11-18T09:47:06.713Z,3536
2017-11-18T09:48:16.868Z,3580
2017-11-18T09:49:26.684Z,3668
2017-11-18T09:50:36.777Z,4240
2017-11-18T09:51:46.898Z,7508
2017-11-18T09:52:56.988Z,7560
2017-11-18T09:54:07.153Z,7492
2017-11-18T09:55:17.243Z,7768
2017-11-18T09:56:27.072Z,7932
2017-11-18T09:57:36.877Z,7960
2017-11-18T09:58:46.703Z,6712
2017-11-18T09:59:56.319Z,7288
2017-11-18T10:01:06.161Z,5576
2017-11-18T10:02:15.993Z,5396
2017-11-18T10:03:25.834Z,6500
2017-11-18T10:04:35.671Z,6044
2017-11-18T10:05:45.764Z,6096
2017-11-18T10:06:55.883Z,7012
2017-11-18T10:08:05.956Z,6044
2017-11-18T10:09:16.063Z,7776
2017-11-18T10:10:25.627Z,5396
2017-11-18T10:11:35.497Z,7836
2017-11-18T10:12:45.584Z,7912
2017-11-18T10:13:55.665Z,7920
2017-11-18T10:15:05.488Z,7900
2017-11-18T10:16:16.787Z,7720
2017-11-18T10:17:26.890Z,7372
2017-11-18T10:18:36.997Z,6716
2017-11-18T10:19:46.838Z,6256
2017-11-18T10:20:56.930Z,6864
2017-11-18T10:22:06.749Z,6468
2017-11-18T10:23:16.571Z,6172
2017-11-18T10:24:26.678Z,5800
2017-11-18T10:25:36.764Z,6468
2017-11-18T10:26:46.852Z,8244
2017-11-18T10:27:56.691Z,7804
2017-11-18T10:29:06.803Z,4952
2017-11-18T10:30:16.911Z,4600
2017-11-18T10:31:26.731Z,4508
2017-11-18T10:32:36.551Z,4364
2017-11-18T10:33:46.664Z,4412
2017-11-18T10:34:56.740Z,4452
2017-11-18T10:36:06.829Z,4616
2017-11-18T10:37:16.655Z,4256
2017-11-18T10:38:26.761Z,4164
2017-11-18T10:39:36.865Z,4156
2017-11-18T10:40:46.941Z,4272
2017-11-18T10:41:57.051Z,4524
2017-11-18T10:43:07.188Z,4764
2017-11-18T10:44:17.267Z,4356
2017-11-18T10:45:27.367Z,4160
2017-11-18T10:46:37.503Z,4072
2017-11-18T10:47:47.615Z,4028
2017-11-18T10:48:58.245Z,3936
2017-11-18T10:50:08.800Z,3796
2017-11-18T10:51:18.905Z,3688
2017-11-18T10:52:29.022Z,3612
2017-11-18T10:53:38.857Z,3552
2017-11-18T10:54:48.952Z,3516
2017-11-18T10:55:58.783Z,3504
2017-11-18T10:57:08.887Z,3504
2017-11-18T10:58:18.987Z,3504
2017-11-18T10:59:28.808Z,3512
2017-11-18T11:00:38.635Z,3528
2017-11-18T11:01:48.458Z,3564
2017-11-18T11:02:58.019Z,3616
2017-11-18T11:04:08.645Z,3652
2017-11-18T11:05:17.932Z,3716
2017-11-18T11:06:28.031Z,3816
2017-11-18T11:08:09.663Z,4060
2017-11-18T11:09:19.788Z,4316
2017-11-18T11:10:29.620Z,4628
2017-11-18T11:11:39.441Z,6768
2017-11-18T11:12:49.270Z,6004
2017-11-18T11:13:59.156Z,5384
2017-11-18T11:15:09.347Z,4956
2017-11-18T11:16:19.498Z,4764
2017-11-18T11:17:29.586Z,4628
2017-11-18T11:18:39.697Z,4384
2017-11-18T11:19:49.805Z,4320
2017-11-18T11:20:59.686Z,4096
2017-11-18T11:22:09.817Z,3888
2017-11-18T11:23:19.637Z,3760
2017-11-18T11:24:29.480Z,3628
2017-11-18T11:25:39.640Z,3536
2017-11-18T11:26:49.712Z,3460
2017-11-18T11:27:59.816Z,3440
2017-11-18T11:29:09.909Z,3528
2017-11-18T11:30:20.007Z,3464
2017-11-18T11:31:29.879Z,3428
2017-11-18T11:32:40.057Z,3428
2017-11-18T11:33:49.623Z,3460
2017-11-18T11:34:59.728Z,3508
2017-11-18T11:36:09.556Z,3520
2017-11-18T11:37:19.408Z,3560
2017-11-18T11:38:29.586Z,3560
2017-11-18T11:39:39.590Z,3528
2017-11-18T11:40:49.666Z,3508
2017-11-18T11:41:59.791Z,3508
2017-11-18T11:43:09.894Z,3512
2017-11-18T11:44:19.807Z,3536
2017-11-18T11:45:29.663Z,3536
2017-11-18T11:46:39.495Z,3572
2017-11-18T11:47:49.314Z,3504
2017-11-18T11:48:59.537Z,3468
2017-11-18T11:50:10.628Z,3452
2017-11-18T11:51:20.528Z,3464
2017-11-18T11:52:30.658Z,3464
2017-11-18T11:53:40.212Z,3424
2017-11-18T11:54:50.040Z,3372
2017-11-18T11:55:59.928Z,3332
2017-11-18T11:57:09.752Z,3292
2017-11-18T11:58:19.571Z,3264
2017-11-18T11:59:29.419Z,3224
2017-11-18T12:00:39.265Z,3180
2017-11-18T12:01:49.497Z,3144
2017-11-18T12:02:59.609Z,3116
2017-11-18T12:04:09.446Z,3136
2017-11-18T12:05:19.016Z,3200
2017-11-18T12:06:28.846Z,3264
2017-11-18T12:07:38.766Z,3340
2017-11-18T12:08:48.855Z,3396
2017-11-18T12:09:58.955Z,3412
2017-11-18T12:11:08.795Z,3404
2017-11-18T12:12:18.951Z,3412
2017-11-18T12:13:28.805Z,3448
2017-11-18T12:14:38.653Z,3536
2017-11-18T12:15:48.577Z,3336
2017-11-18T12:16:58.727Z,3236
2017-11-18T12:18:08.557Z,3124
2017-11-18T12:19:18.819Z,3024
2017-11-18T12:20:28.950Z,2976
2017-11-18T12:21:39.053Z,2960
2017-11-18T12:22:49.080Z,2944
2017-11-18T12:23:58.638Z,2904
2017-11-18T12:25:08.514Z,2852
2017-11-18T12:26:18.325Z,2768
2017-11-18T12:27:28.395Z,2724
2017-11-18T12:28:38.533Z,2688
2017-11-18T12:29:48.631Z,2672
2017-11-18T12:30:58.507Z,2680
2017-11-18T12:32:08.376Z,2684
2017-11-18T12:33:18.336Z,2676
2017-11-18T12:34:28.431Z,2652
2017-11-18T12:35:37.988Z,2600
2017-11-18T12:36:47.537Z,2548
2017-11-18T12:37:57.660Z,2508
2017-11-18T12:39:07.496Z,2476
2017-11-18T12:40:17.375Z,2448
2017-11-18T12:41:27.214Z,2404
2017-11-18T12:42:36.554Z,2368
2017-11-18T12:43:46.638Z,2328
2017-11-18T12:44:56.478Z,2304
2017-11-18T12:46:06.580Z,2288
2017-11-18T12:47:16.143Z,2288
2017-11-18T12:48:26.318Z,2280
2017-11-18T12:49:36.150Z,2276
2017-11-18T12:50:46.264Z,2276
2017-11-18T12:51:56.101Z,2276
2017-11-18T12:53:06.215Z,2284
2017-11-18T12:54:16.310Z,2332
2017-11-18T12:55:26.420Z,2400
2017-11-18T12:56:36.558Z,2440
2017-11-18T12:57:46.662Z,2484
2017-11-18T12:58:56.506Z,2476
2017-11-18T13:00:06.119Z,2468
2017-11-18T13:01:15.666Z,2468
2017-11-18T13:02:25.777Z,2464
2017-11-18T13:03:35.595Z,2456
2017-11-18T13:04:45.701Z,2456
2017-11-18T13:05:55.567Z,2480
2017-11-18T13:07:05.797Z,2512
2017-11-18T13:08:15.925Z,2568
2017-11-18T13:09:25.775Z,2704
2017-11-18T13:10:35.896Z,5548
2017-11-18T13:11:46.087Z,5452
2017-11-18T13:12:56.176Z,5392
2017-11-18T13:14:06.272Z,5384
2017-11-18T13:15:16.085Z,5408
2017-11-18T13:16:25.910Z,5212
2017-11-18T13:17:36.028Z,5112
2017-11-18T13:18:46.168Z,5136
2017-11-18T13:19:55.999Z,4712
2017-11-18T13:21:06.097Z,4424
2017-11-18T13:22:15.654Z,4424
2017-11-18T13:23:25.479Z,4568
2017-11-18T13:24:35.567Z,4384
2017-11-18T13:25:45.668Z,4012
2017-11-18T13:26:55.228Z,3960
2017-11-18T13:28:05.058Z,3900
2017-11-18T13:29:14.879Z,3968
2017-11-18T13:30:24.970Z,4008
2017-11-18T13:31:34.794Z,3956
2017-11-18T13:32:44.634Z,3704
2017-11-18T13:33:54.717Z,3588
2017-11-18T13:35:04.568Z,3512
2017-11-18T13:36:14.385Z,3368
2017-11-18T13:37:24.215Z,3140
2017-11-18T13:38:34.017Z,3148
2017-11-18T13:39:44.124Z,2860
2017-11-18T13:40:53.982Z,2704
2017-11-18T13:42:04.063Z,2792
2017-11-18T13:43:14.177Z,2872
2017-11-18T13:44:24.029Z,2772
2017-11-18T13:45:34.142Z,2620
2017-11-18T13:46:44.235Z,2496
2017-11-18T13:47:54.315Z,1332
2017-11-18T13:49:04.149Z,1864
2017-11-18T13:50:14.245Z,1564
2017-11-18T13:51:24.351Z,1896
2017-11-18T13:52:34.462Z,1720
2017-11-18T13:53:44.551Z,1516
2017-11-18T13:54:54.650Z,1392
2017-11-18T13:56:04.515Z,1720
2017-11-18T13:57:14.345Z,1144
2017-11-18T13:58:24.171Z,1156
2017-11-18T13:59:34.261Z,1472
2017-11-18T14:00:44.332Z,1288
2017-11-18T14:01:54.166Z,1324
2017-11-18T14:03:03.985Z,1548
2017-11-18T14:04:14.163Z,1568
2017-11-18T14:05:24.275Z,1184
2017-11-18T14:06:34.095Z,1028
2017-11-18T14:07:44.190Z,952
2017-11-18T14:08:54.288Z,944
2017-11-18T14:10:03.855Z,1216
2017-11-18T14:11:13.419Z,1092
2017-11-18T14:12:23.512Z,1036
2017-11-18T14:13:33.335Z,1048
2017-11-18T14:14:42.885Z,1040
2017-11-18T14:15:53.298Z,1024
2017-11-18T14:17:03.127Z,1004
2017-11-18T14:18:13.532Z,1036
2017-11-18T14:19:23.872Z,1068
2017-11-18T14:20:34.644Z,1200
2017-11-18T14:21:44.972Z,1116
2017-11-18T14:22:55.346Z,1000
2017-11-18T14:24:05.526Z,972
2017-11-18T14:25:15.382Z,888
2017-11-18T14:26:25.500Z,776
2017-11-18T14:27:35.577Z,680
2017-11-18T14:28:45.409Z,608
2017-11-18T14:29:55.498Z,552
2017-11-18T14:31:05.588Z,508
2017-11-18T14:32:15.698Z,460
2017-11-18T14:33:25.536Z,424
2017-11-18T14:34:35.867Z,428
2017-11-18T14:35:45.439Z,460
2017-11-18T14:36:55.470Z,484
2017-11-18T14:38:05.559Z,504
2017-11-18T14:39:15.390Z,508
2017-11-18T14:40:25.547Z,504
2017-11-18T14:41:35.364Z,476
2017-11-18T14:42:45.216Z,436
2017-11-18T14:43:55.030Z,408
2017-11-18T14:45:05.149Z,376
2017-11-18T14:46:14.755Z,336
2017-11-18T14:47:24.853Z,300
2017-11-18T14:48:34.677Z,272
2017-11-18T14:49:44.500Z,260
2017-11-18T14:50:54.332Z,256
2017-11-18T14:52:03.906Z,260
2017-11-18T14:53:14.033Z,264
2017-11-18T14:54:24.188Z,264
2017-11-18T14:55:34.026Z,264
2017-11-18T14:56:44.146Z,264
2017-11-18T14:57:54.313Z,280
2017-11-18T14:59:04.643Z,288
2017-11-18T15:00:14.758Z,272
2017-11-18T15:01:24.336Z,244
2017-11-18T15:02:34.488Z,216
2017-11-18T15:03:44.304Z,200
2017-11-18T15:04:54.159Z,180
2017-11-18T15:06:04.280Z,164
2017-11-18T15:07:14.387Z,148
2017-11-18T15:08:24.500Z,136
2017-11-18T15:09:34.156Z,116
2017-11-18T15:10:44.274Z,104
2017-11-18T15:11:54.098Z,88
2017-11-18T15:13:03.920Z,72
2017-11-18T15:14:13.752Z,64
2017-11-18T15:15:23.653Z,52
2017-11-18T15:16:33.482Z,48
2017-11-18T15:17:43.329Z,44
2017-11-18T15:18:53.466Z,36
2017-11-18T15:20:03.623Z,32
2017-11-18T15:21:14.541Z,28
2017-11-18T15:22:24.648Z,28
2017-11-18T15:23:33.944Z,24
2017-11-18T15:24:44.052Z,20
2017-11-18T15:25:54.165Z,20
2017-11-18T15:27:04.347Z,16
2017-11-18T15:28:15.280Z,12
2017-11-18T15:29:25.110Z,12
2017-11-18T15:30:34.951Z,12
2017-11-18T15:31:45.051Z,8
2017-11-18T15:32:55.190Z,8
2017-11-18T15:34:05.284Z,8
2017-11-18T15:35:16.312Z,8
2017-11-18T15:36:26.150Z,4
2017-11-18T15:37:36.324Z,4
2017-11-18T15:38:46.484Z,4
2017-11-18T15:39:56.304Z,0
2017-11-18T15:41:06.402Z,0
2017-11-18T15:42:15.959Z,4
2017-11-18T15:43:26.271Z,4
2017-11-18T15:44:36.101Z,0
2017-11-18T15:45:45.955Z,0
2017-11-18T15:46:56.110Z,0
2017-11-18T15:48:05.938Z,0
2017-11-18T15:49:16.038Z,0
2017-11-18T15:50:25.887Z,0
2017-11-18T15:51:36.021Z,0
2017-11-18T15:52:45.590Z,0
2017-11-18T15:53:55.427Z,0
2017-11-18T15:55:05.252Z,0
2017-11-18T15:56:15.138Z,0
2017-11-18T15:57:24.963Z,0
2017-11-18T15:58:34.781Z,0
2017-11-18T15:59:44.879Z,0
2017-11-18T16:00:54.431Z,0
2017-11-18T16:02:04.249Z,0
2017-11-18T16:03:14.067Z,0
2017-11-18T16:04:24.165Z,0
2017-11-18T16:05:34.267Z,0
2017-11-18T16:06:44.370Z,0
2017-11-18T16:07:54.503Z,0
2017-11-18T16:09:04.605Z,0
2017-11-18T16:10:14.728Z,0
2017-11-18T16:11:24.822Z,0
2017-11-18T16:12:34.906Z,0
2017-11-18T16:13:45.781Z,0
2017-11-18T16:14:55.606Z,0
2017-11-18T16:16:05.721Z,0
2017-11-18T16:17:15.822Z,0
2017-11-18T16:18:25.952Z,0
2017-11-18T16:19:36.125Z,0
2017-11-18T16:20:46.233Z,0
2017-11-18T16:21:56.326Z,0
2017-11-18T16:23:06.429Z,0
2017-11-18T16:24:15.766Z,0
2017-11-18T16:25:25.370Z,0
2017-11-18T16:26:35.456Z,0
2017-11-18T16:27:45.552Z,0
2017-11-18T16:28:55.398Z,0
2017-11-18T16:30:06.292Z,0
2017-11-18T16:31:15.888Z,0
2017-11-18T16:32:25.985Z,0
2017-11-18T16:33:36.105Z,0
2017-11-18T16:34:46.194Z,0
2017-11-18T16:35:56.293Z,0
2017-11-18T16:37:05.861Z,0
2017-11-18T16:38:15.953Z,0
2017-11-18T16:39:26.061Z,0
2017-11-18T16:40:36.172Z,0
2017-11-18T16:41:45.997Z,0
2017-11-18T16:42:56.136Z,0
2017-11-18T16:44:05.703Z,0
2017-11-18T16:45:15.794Z,0
2017-11-18T16:46:25.897Z,0
2017-11-18T16:47:35.981Z,0